sensor_id;sensor_type;location;lat;lon;timestamp;P1;durP1;ratioP1;P2;durP2;ratioP2
70818;SDS011;58439;51.046;13.692;2023-06-04T00:02:11;13.02;;;5.70;;
70818;SDS011;58439;51.046;13.692;2023-06-04T00:04:38;12.20;;;5.05;;
70818;SDS011;58439;51.046;13.692;2023-06-04T00:07:05;11.48;;;5.00;;
70818;SDS011;58439;51.046;13.692;2023-06-04T00:09:32;11.43;;;4.68;;
70818;SDS011;58439;51.046;13.692;2023-06-04T00:12:00;10.38;;;5.13;;
70818;SDS011;58439;51.046;13.692;2023-06-04T00:14:28;7.80;;;4.40;;
70818;SDS011;58439;51.046;13.692;2023-06-04T00:16:56;8.07;;;3.60;;
70818;SDS011;58439;51.046;13.692;2023-06-04T00:19:25;7.78;;;3.85;;
70818;SDS011;58439;51.046;13.692;2023-06-04T00:21:56;7.95;;;3.35;;
70818;SDS011;58439;51.046;13.692;2023-06-04T00:24:26;8.98;;;3.47;;
70818;SDS011;58439;51.046;13.692;2023-06-04T00:26:54;7.07;;;3.50;;
70818;SDS011;58439;51.046;13.692;2023-06-04T00:29:22;6.40;;;3.22;;
70818;SDS011;58439;51.046;13.692;2023-06-04T00:32:05;8.98;;;3.38;;
70818;SDS011;58439;51.046;13.692;2023-06-04T00:38:25;7.75;;;3.17;;
70818;SDS011;58439;51.046;13.692;2023-06-04T00:42:04;4.90;;;2.63;;
70818;SDS011;58439;51.046;13.692;2023-06-04T00:45:00;6.25;;;3.03;;
70818;SDS011;58439;51.046;13.692;2023-06-04T00:50:55;6.95;;;3.25;;
70818;SDS011;58439;51.046;13.692;2023-06-04T00:53:35;8.70;;;3.60;;
70818;SDS011;58439;51.046;13.692;2023-06-04T00:56:03;7.55;;;3.20;;
70818;SDS011;58439;51.046;13.692;2023-06-04T00:58:39;11.27;;;4.57;;
70818;SDS011;58439;51.046;13.692;2023-06-04T01:01:16;7.78;;;3.53;;
70818;SDS011;58439;51.046;13.692;2023-06-04T01:04:31;9.27;;;3.47;;
70818;SDS011;58439;51.046;13.692;2023-06-04T01:07:13;6.85;;;3.22;;
70818;SDS011;58439;51.046;13.692;2023-06-04T01:09:47;8.10;;;3.80;;
70818;SDS011;58439;51.046;13.692;2023-06-04T01:12:14;8.77;;;3.70;;
70818;SDS011;58439;51.046;13.692;2023-06-04T01:14:45;12.32;;;3.63;;
70818;SDS011;58439;51.046;13.692;2023-06-04T01:17:34;9.70;;;3.40;;
70818;SDS011;58439;51.046;13.692;2023-06-04T01:20:43;8.32;;;3.17;;
70818;SDS011;58439;51.046;13.692;2023-06-04T01:26:12;6.55;;;3.30;;
70818;SDS011;58439;51.046;13.692;2023-06-04T01:28:44;6.10;;;3.28;;
70818;SDS011;58439;51.046;13.692;2023-06-04T01:31:16;8.57;;;3.65;;
70818;SDS011;58439;51.046;13.692;2023-06-04T01:34:14;6.25;;;3.17;;
70818;SDS011;58439;51.046;13.692;2023-06-04T01:38:33;7.20;;;3.17;;
70818;SDS011;58439;51.046;13.692;2023-06-04T01:41:09;8.60;;;3.78;;
70818;SDS011;58439;51.046;13.692;2023-06-04T01:47:21;6.47;;;3.33;;
70818;SDS011;58439;51.046;13.692;2023-06-04T01:49:48;8.48;;;3.45;;
70818;SDS011;58439;51.046;13.692;2023-06-04T01:52:16;7.10;;;2.97;;
70818;SDS011;58439;51.046;13.692;2023-06-04T01:54:43;7.80;;;3.20;;
70818;SDS011;58439;51.046;13.692;2023-06-04T01:57:10;4.82;;;2.80;;
70818;SDS011;58439;51.046;13.692;2023-06-04T01:59:37;8.70;;;2.90;;
70818;SDS011;58439;51.046;13.692;2023-06-04T02:02:05;5.90;;;2.63;;
70818;SDS011;58439;51.046;13.692;2023-06-04T02:04:32;6.78;;;3.08;;
70818;SDS011;58439;51.046;13.692;2023-06-04T02:07:02;6.18;;;2.90;;
70818;SDS011;58439;51.046;13.692;2023-06-04T02:09:30;5.47;;;2.85;;
70818;SDS011;58439;51.046;13.692;2023-06-04T02:11:57;5.20;;;2.88;;
70818;SDS011;58439;51.046;13.692;2023-06-04T02:14:27;7.53;;;2.70;;
70818;SDS011;58439;51.046;13.692;2023-06-04T02:16:54;6.68;;;2.80;;
70818;SDS011;58439;51.046;13.692;2023-06-04T02:19:24;4.75;;;2.72;;
70818;SDS011;58439;51.046;13.692;2023-06-04T02:21:55;7.00;;;2.75;;
70818;SDS011;58439;51.046;13.692;2023-06-04T02:24:22;6.90;;;2.85;;
70818;SDS011;58439;51.046;13.692;2023-06-04T02:26:49;7.32;;;2.80;;
70818;SDS011;58439;51.046;13.692;2023-06-04T02:29:16;5.00;;;2.85;;
70818;SDS011;58439;51.046;13.692;2023-06-04T02:31:43;5.90;;;2.33;;
70818;SDS011;58439;51.046;13.692;2023-06-04T02:34:11;5.35;;;2.80;;
70818;SDS011;58439;51.046;13.692;2023-06-04T02:36:38;5.68;;;2.55;;
70818;SDS011;58439;51.046;13.692;2023-06-04T02:39:05;5.10;;;2.50;;
70818;SDS011;58439;51.046;13.692;2023-06-04T02:41:32;5.03;;;2.45;;
70818;SDS011;58439;51.046;13.692;2023-06-04T02:44:02;6.38;;;2.78;;
70818;SDS011;58439;51.046;13.692;2023-06-04T02:46:31;5.80;;;2.70;;
70818;SDS011;58439;51.046;13.692;2023-06-04T02:48:59;7.07;;;2.58;;
70818;SDS011;58439;51.046;13.692;2023-06-04T02:51:27;4.93;;;2.42;;
70818;SDS011;58439;51.046;13.692;2023-06-04T02:53:55;5.63;;;2.50;;
70818;SDS011;58439;51.046;13.692;2023-06-04T02:56:22;5.47;;;2.67;;
70818;SDS011;58439;51.046;13.692;2023-06-04T02:58:50;4.93;;;2.65;;
70818;SDS011;58439;51.046;13.692;2023-06-04T03:01:24;5.68;;;2.40;;
70818;SDS011;58439;51.046;13.692;2023-06-04T03:03:54;5.22;;;2.58;;
70818;SDS011;58439;51.046;13.692;2023-06-04T03:06:22;7.60;;;2.47;;
70818;SDS011;58439;51.046;13.692;2023-06-04T03:08:50;6.78;;;3.20;;
70818;SDS011;58439;51.046;13.692;2023-06-04T03:11:18;7.85;;;2.85;;
70818;SDS011;58439;51.046;13.692;2023-06-04T03:13:48;9.98;;;3.00;;
70818;SDS011;58439;51.046;13.692;2023-06-04T03:16:19;5.88;;;2.33;;
70818;SDS011;58439;51.046;13.692;2023-06-04T03:18:49;6.22;;;2.80;;
70818;SDS011;58439;51.046;13.692;2023-06-04T03:21:17;7.18;;;2.47;;
70818;SDS011;58439;51.046;13.692;2023-06-04T03:23:46;10.65;;;2.83;;
70818;SDS011;58439;51.046;13.692;2023-06-04T03:26:13;5.80;;;2.53;;
70818;SDS011;58439;51.046;13.692;2023-06-04T03:28:42;7.93;;;2.60;;
70818;SDS011;58439;51.046;13.692;2023-06-04T03:31:13;6.15;;;2.55;;
70818;SDS011;58439;51.046;13.692;2023-06-04T03:33:41;6.05;;;2.78;;
70818;SDS011;58439;51.046;13.692;2023-06-04T03:36:12;5.72;;;2.55;;
70818;SDS011;58439;51.046;13.692;2023-06-04T03:38:39;4.65;;;2.40;;
70818;SDS011;58439;51.046;13.692;2023-06-04T03:41:07;6.10;;;2.78;;
70818;SDS011;58439;51.046;13.692;2023-06-04T03:43:34;8.18;;;2.63;;
70818;SDS011;58439;51.046;13.692;2023-06-04T03:46:06;6.47;;;2.67;;
70818;SDS011;58439;51.046;13.692;2023-06-04T03:48:33;5.13;;;2.30;;
70818;SDS011;58439;51.046;13.692;2023-06-04T03:51:00;7.70;;;3.08;;
70818;SDS011;58439;51.046;13.692;2023-06-04T03:53:27;6.00;;;2.78;;
70818;SDS011;58439;51.046;13.692;2023-06-04T03:55:55;6.45;;;3.10;;
70818;SDS011;58439;51.046;13.692;2023-06-04T03:58:22;4.60;;;2.60;;
70818;SDS011;58439;51.046;13.692;2023-06-04T04:00:51;4.63;;;2.55;;
70818;SDS011;58439;51.046;13.692;2023-06-04T04:03:18;7.47;;;2.85;;
70818;SDS011;58439;51.046;13.692;2023-06-04T04:05:47;7.18;;;2.70;;
70818;SDS011;58439;51.046;13.692;2023-06-04T04:08:25;5.75;;;2.60;;
70818;SDS011;58439;51.046;13.692;2023-06-04T04:10:57;6.32;;;2.72;;
70818;SDS011;58439;51.046;13.692;2023-06-04T04:13:25;9.10;;;2.50;;
70818;SDS011;58439;51.046;13.692;2023-06-04T04:15:53;9.25;;;2.85;;
70818;SDS011;58439;51.046;13.692;2023-06-04T04:18:21;5.00;;;2.78;;
70818;SDS011;58439;51.046;13.692;2023-06-04T04:20:49;6.07;;;2.90;;
70818;SDS011;58439;51.046;13.692;2023-06-04T04:23:16;5.22;;;2.90;;
70818;SDS011;58439;51.046;13.692;2023-06-04T04:25:45;8.20;;;2.88;;
70818;SDS011;58439;51.046;13.692;2023-06-04T04:28:15;6.88;;;2.40;;
70818;SDS011;58439;51.046;13.692;2023-06-04T04:30:45;6.38;;;2.53;;
70818;SDS011;58439;51.046;13.692;2023-06-04T04:33:16;6.15;;;2.50;;
70818;SDS011;58439;51.046;13.692;2023-06-04T04:35:45;5.07;;;2.50;;
70818;SDS011;58439;51.046;13.692;2023-06-04T04:38:16;5.45;;;2.65;;
70818;SDS011;58439;51.046;13.692;2023-06-04T04:40:50;6.03;;;2.42;;
70818;SDS011;58439;51.046;13.692;2023-06-04T04:43:32;6.38;;;2.53;;
70818;SDS011;58439;51.046;13.692;2023-06-04T04:46:08;6.10;;;2.53;;
70818;SDS011;58439;51.046;13.692;2023-06-04T04:48:36;6.07;;;2.75;;
70818;SDS011;58439;51.046;13.692;2023-06-04T04:51:05;5.57;;;2.47;;
70818;SDS011;58439;51.046;13.692;2023-06-04T04:53:33;4.85;;;2.40;;
70818;SDS011;58439;51.046;13.692;2023-06-04T04:56:02;7.90;;;2.88;;
70818;SDS011;58439;51.046;13.692;2023-06-04T04:58:35;6.10;;;2.85;;
70818;SDS011;58439;51.046;13.692;2023-06-04T05:01:02;5.78;;;2.90;;
70818;SDS011;58439;51.046;13.692;2023-06-04T05:03:30;6.45;;;2.55;;
70818;SDS011;58439;51.046;13.692;2023-06-04T05:05:58;5.75;;;2.80;;
70818;SDS011;58439;51.046;13.692;2023-06-04T05:08:25;9.00;;;3.10;;
70818;SDS011;58439;51.046;13.692;2023-06-04T05:10:52;7.18;;;2.58;;
70818;SDS011;58439;51.046;13.692;2023-06-04T05:13:19;5.82;;;2.50;;
70818;SDS011;58439;51.046;13.692;2023-06-04T05:15:53;4.45;;;2.42;;
70818;SDS011;58439;51.046;13.692;2023-06-04T05:18:24;7.55;;;2.70;;
70818;SDS011;58439;51.046;13.692;2023-06-04T05:20:58;6.75;;;2.60;;
70818;SDS011;58439;51.046;13.692;2023-06-04T05:23:31;6.25;;;2.63;;
70818;SDS011;58439;51.046;13.692;2023-06-04T05:26:01;5.75;;;2.58;;
70818;SDS011;58439;51.046;13.692;2023-06-04T05:28:28;4.85;;;2.40;;
70818;SDS011;58439;51.046;13.692;2023-06-04T05:30:56;8.57;;;2.72;;
70818;SDS011;58439;51.046;13.692;2023-06-04T05:33:28;7.07;;;2.75;;
70818;SDS011;58439;51.046;13.692;2023-06-04T05:36:01;6.35;;;2.75;;
70818;SDS011;58439;51.046;13.692;2023-06-04T05:38:34;8.32;;;2.97;;
70818;SDS011;58439;51.046;13.692;2023-06-04T05:43:36;10.05;;;2.88;;
70818;SDS011;58439;51.046;13.692;2023-06-04T05:46:05;7.10;;;2.95;;
70818;SDS011;58439;51.046;13.692;2023-06-04T05:48:34;8.65;;;3.28;;
70818;SDS011;58439;51.046;13.692;2023-06-04T05:51:03;5.05;;;2.75;;
70818;SDS011;58439;51.046;13.692;2023-06-04T05:53:35;7.07;;;2.60;;
70818;SDS011;58439;51.046;13.692;2023-06-04T06:00:40;5.93;;;2.80;;
70818;SDS011;58439;51.046;13.692;2023-06-04T06:03:08;5.78;;;2.50;;
70818;SDS011;58439;51.046;13.692;2023-06-04T06:05:42;6.32;;;2.70;;
70818;SDS011;58439;51.046;13.692;2023-06-04T06:08:09;4.60;;;2.40;;
70818;SDS011;58439;51.046;13.692;2023-06-04T06:10:37;7.32;;;2.33;;
70818;SDS011;58439;51.046;13.692;2023-06-04T06:13:04;7.72;;;3.08;;
70818;SDS011;58439;51.046;13.692;2023-06-04T06:15:32;5.68;;;2.58;;
70818;SDS011;58439;51.046;13.692;2023-06-04T06:18:07;3.65;;;2.17;;
70818;SDS011;58439;51.046;13.692;2023-06-04T06:20:34;4.72;;;2.50;;
70818;SDS011;58439;51.046;13.692;2023-06-04T06:23:07;4.72;;;2.80;;
70818;SDS011;58439;51.046;13.692;2023-06-04T06:25:43;8.05;;;2.70;;
70818;SDS011;58439;51.046;13.692;2023-06-04T06:30:23;5.97;;;2.85;;
70818;SDS011;58439;51.046;13.692;2023-06-04T06:38:14;7.45;;;2.50;;
70818;SDS011;58439;51.046;13.692;2023-06-04T06:40:44;5.85;;;2.90;;
70818;SDS011;58439;51.046;13.692;2023-06-04T06:43:12;4.10;;;2.38;;
70818;SDS011;58439;51.046;13.692;2023-06-04T06:45:43;5.60;;;2.63;;
70818;SDS011;58439;51.046;13.692;2023-06-04T06:48:10;6.03;;;2.58;;
70818;SDS011;58439;51.046;13.692;2023-06-04T06:50:38;5.45;;;2.45;;
70818;SDS011;58439;51.046;13.692;2023-06-04T06:53:05;7.03;;;2.45;;
70818;SDS011;58439;51.046;13.692;2023-06-04T06:55:33;3.97;;;2.30;;
70818;SDS011;58439;51.046;13.692;2023-06-04T06:58:12;7.07;;;2.58;;
70818;SDS011;58439;51.046;13.692;2023-06-04T07:00:40;5.55;;;2.30;;
70818;SDS011;58439;51.046;13.692;2023-06-04T07:03:09;4.10;;;2.10;;
70818;SDS011;58439;51.046;13.692;2023-06-04T07:05:36;5.75;;;2.22;;
70818;SDS011;58439;51.046;13.692;2023-06-04T07:08:03;5.47;;;1.90;;
70818;SDS011;58439;51.046;13.692;2023-06-04T07:10:30;3.70;;;2.00;;
70818;SDS011;58439;51.046;13.692;2023-06-04T07:12:57;3.45;;;1.70;;
70818;SDS011;58439;51.046;13.692;2023-06-04T07:15:31;4.25;;;1.83;;
70818;SDS011;58439;51.046;13.692;2023-06-04T07:17:59;4.28;;;1.80;;
70818;SDS011;58439;51.046;13.692;2023-06-04T07:20:31;7.13;;;1.98;;
70818;SDS011;58439;51.046;13.692;2023-06-04T07:22:58;6.80;;;1.95;;
70818;SDS011;58439;51.046;13.692;2023-06-04T07:25:29;5.25;;;2.08;;
70818;SDS011;58439;51.046;13.692;2023-06-04T07:27:56;6.20;;;2.38;;
70818;SDS011;58439;51.046;13.692;2023-06-04T07:30:26;4.18;;;1.80;;
70818;SDS011;58439;51.046;13.692;2023-06-04T07:32:53;4.93;;;1.85;;
70818;SDS011;58439;51.046;13.692;2023-06-04T07:35:21;6.43;;;2.33;;
70818;SDS011;58439;51.046;13.692;2023-06-04T07:39:57;6.82;;;2.05;;
70818;SDS011;58439;51.046;13.692;2023-06-04T07:42:49;8.32;;;1.85;;
70818;SDS011;58439;51.046;13.692;2023-06-04T07:45:17;4.22;;;1.60;;
70818;SDS011;58439;51.046;13.692;2023-06-04T07:47:45;8.48;;;1.90;;
70818;SDS011;58439;51.046;13.692;2023-06-04T07:50:13;3.55;;;1.70;;
70818;SDS011;58439;51.046;13.692;2023-06-04T07:52:44;5.95;;;1.92;;
70818;SDS011;58439;51.046;13.692;2023-06-04T07:55:11;4.20;;;1.77;;
70818;SDS011;58439;51.046;13.692;2023-06-04T07:57:38;6.07;;;2.00;;
70818;SDS011;58439;51.046;13.692;2023-06-04T08:00:06;4.85;;;1.88;;
70818;SDS011;58439;51.046;13.692;2023-06-04T08:05:06;3.67;;;1.70;;
70818;SDS011;58439;51.046;13.692;2023-06-04T08:07:33;9.90;;;1.65;;
70818;SDS011;58439;51.046;13.692;2023-06-04T08:10:00;4.80;;;1.55;;
70818;SDS011;58439;51.046;13.692;2023-06-04T08:12:28;6.32;;;1.90;;
70818;SDS011;58439;51.046;13.692;2023-06-04T08:14:56;6.05;;;2.17;;
70818;SDS011;58439;51.046;13.692;2023-06-04T08:17:23;7.20;;;1.80;;
70818;SDS011;58439;51.046;13.692;2023-06-04T08:19:53;3.25;;;1.60;;
70818;SDS011;58439;51.046;13.692;2023-06-04T08:22:35;4.13;;;1.88;;
70818;SDS011;58439;51.046;13.692;2023-06-04T08:25:03;6.10;;;1.75;;
70818;SDS011;58439;51.046;13.692;2023-06-04T08:27:51;3.65;;;1.80;;
70818;SDS011;58439;51.046;13.692;2023-06-04T08:30:38;3.40;;;1.67;;
70818;SDS011;58439;51.046;13.692;2023-06-04T08:33:11;3.72;;;1.67;;
70818;SDS011;58439;51.046;13.692;2023-06-04T08:35:58;4.05;;;1.30;;
70818;SDS011;58439;51.046;13.692;2023-06-04T08:38:25;3.70;;;1.50;;
70818;SDS011;58439;51.046;13.692;2023-06-04T08:40:53;4.65;;;1.58;;
70818;SDS011;58439;51.046;13.692;2023-06-04T08:43:39;3.83;;;1.60;;
70818;SDS011;58439;51.046;13.692;2023-06-04T08:46:06;6.43;;;1.83;;
70818;SDS011;58439;51.046;13.692;2023-06-04T08:48:35;7.93;;;1.52;;
70818;SDS011;58439;51.046;13.692;2023-06-04T08:51:05;3.58;;;1.50;;
70818;SDS011;58439;51.046;13.692;2023-06-04T08:53:35;4.13;;;1.50;;
70818;SDS011;58439;51.046;13.692;2023-06-04T08:56:03;5.25;;;1.50;;
70818;SDS011;58439;51.046;13.692;2023-06-04T08:58:31;3.72;;;1.52;;
70818;SDS011;58439;51.046;13.692;2023-06-04T09:01:00;6.78;;;1.58;;
70818;SDS011;58439;51.046;13.692;2023-06-04T09:03:28;4.45;;;1.30;;
70818;SDS011;58439;51.046;13.692;2023-06-04T09:05:59;3.38;;;1.42;;
70818;SDS011;58439;51.046;13.692;2023-06-04T09:08:27;2.53;;;1.10;;
70818;SDS011;58439;51.046;13.692;2023-06-04T09:11:05;4.93;;;1.60;;
70818;SDS011;58439;51.046;13.692;2023-06-04T09:13:40;4.20;;;1.60;;
70818;SDS011;58439;51.046;13.692;2023-06-04T09:16:09;5.28;;;1.40;;
70818;SDS011;58439;51.046;13.692;2023-06-04T09:18:37;8.90;;;1.83;;
70818;SDS011;58439;51.046;13.692;2023-06-04T09:21:06;3.80;;;1.38;;
70818;SDS011;58439;51.046;13.692;2023-06-04T09:23:36;7.05;;;1.48;;
70818;SDS011;58439;51.046;13.692;2023-06-04T09:26:11;3.60;;;1.30;;
70818;SDS011;58439;51.046;13.692;2023-06-04T09:28:39;4.93;;;1.55;;
70818;SDS011;58439;51.046;13.692;2023-06-04T09:31:09;7.22;;;1.50;;
70818;SDS011;58439;51.046;13.692;2023-06-04T09:33:48;3.33;;;1.30;;
70818;SDS011;58439;51.046;13.692;2023-06-04T09:36:20;2.97;;;1.30;;
70818;SDS011;58439;51.046;13.692;2023-06-04T09:38:48;1.98;;;1.20;;
70818;SDS011;58439;51.046;13.692;2023-06-04T09:41:17;4.72;;;1.20;;
70818;SDS011;58439;51.046;13.692;2023-06-04T09:43:46;3.83;;;1.27;;
70818;SDS011;58439;51.046;13.692;2023-06-04T09:46:15;4.70;;;1.60;;
70818;SDS011;58439;51.046;13.692;2023-06-04T09:48:58;2.08;;;1.08;;
70818;SDS011;58439;51.046;13.692;2023-06-04T10:00:44;2.90;;;1.42;;
70818;SDS011;58439;51.046;13.692;2023-06-04T10:03:13;3.00;;;1.10;;
70818;SDS011;58439;51.046;13.692;2023-06-04T10:05:47;3.70;;;1.20;;
70818;SDS011;58439;51.046;13.692;2023-06-04T10:08:37;7.25;;;1.25;;
70818;SDS011;58439;51.046;13.692;2023-06-04T10:11:26;3.33;;;1.05;;
70818;SDS011;58439;51.046;13.692;2023-06-04T10:14:07;2.22;;;1.20;;
70818;SDS011;58439;51.046;13.692;2023-06-04T10:17:02;3.47;;;1.38;;
70818;SDS011;58439;51.046;13.692;2023-06-04T10:19:46;2.70;;;1.23;;
70818;SDS011;58439;51.046;13.692;2023-06-04T10:22:39;6.13;;;1.60;;
70818;SDS011;58439;51.046;13.692;2023-06-04T10:25:22;2.25;;;1.10;;
70818;SDS011;58439;51.046;13.692;2023-06-04T10:28:03;5.00;;;1.40;;
70818;SDS011;58439;51.046;13.692;2023-06-04T10:30:44;3.33;;;1.30;;
70818;SDS011;58439;51.046;13.692;2023-06-04T10:36:28;3.22;;;1.23;;
70818;SDS011;58439;51.046;13.692;2023-06-04T10:39:30;2.45;;;1.20;;
70818;SDS011;58439;51.046;13.692;2023-06-04T10:42:14;3.72;;;1.55;;
70818;SDS011;58439;51.046;13.692;2023-06-04T10:44:46;2.75;;;1.10;;
70818;SDS011;58439;51.046;13.692;2023-06-04T10:47:24;2.80;;;1.20;;
70818;SDS011;58439;51.046;13.692;2023-06-04T10:50:06;3.38;;;1.38;;
70818;SDS011;58439;51.046;13.692;2023-06-04T10:52:52;2.80;;;1.20;;
70818;SDS011;58439;51.046;13.692;2023-06-04T10:55:21;4.88;;;1.45;;
70818;SDS011;58439;51.046;13.692;2023-06-04T10:57:59;2.83;;;1.13;;
70818;SDS011;58439;51.046;13.692;2023-06-04T11:00:38;3.30;;;1.00;;
70818;SDS011;58439;51.046;13.692;2023-06-04T11:03:09;3.95;;;1.30;;
70818;SDS011;58439;51.046;13.692;2023-06-04T11:05:43;5.10;;;1.30;;
70818;SDS011;58439;51.046;13.692;2023-06-04T11:08:14;4.47;;;1.33;;
70818;SDS011;58439;51.046;13.692;2023-06-04T11:10:53;5.00;;;1.23;;
70818;SDS011;58439;51.046;13.692;2023-06-04T11:13:24;5.55;;;1.48;;
70818;SDS011;58439;51.046;13.692;2023-06-04T11:15:57;3.22;;;1.05;;
70818;SDS011;58439;51.046;13.692;2023-06-04T11:18:24;3.65;;;1.30;;
70818;SDS011;58439;51.046;13.692;2023-06-04T11:20:58;4.25;;;1.35;;
70818;SDS011;58439;51.046;13.692;2023-06-04T11:23:30;3.85;;;1.33;;
70818;SDS011;58439;51.046;13.692;2023-06-04T11:25:59;5.25;;;1.23;;
70818;SDS011;58439;51.046;13.692;2023-06-04T11:28:27;3.30;;;1.30;;
70818;SDS011;58439;51.046;13.692;2023-06-04T11:33:44;6.57;;;1.35;;
70818;SDS011;58439;51.046;13.692;2023-06-04T11:39:08;4.60;;;1.25;;
70818;SDS011;58439;51.046;13.692;2023-06-04T11:41:54;5.60;;;1.58;;
70818;SDS011;58439;51.046;13.692;2023-06-04T11:44:45;3.58;;;1.20;;
70818;SDS011;58439;51.046;13.692;2023-06-04T11:47:21;5.07;;;1.33;;
70818;SDS011;58439;51.046;13.692;2023-06-04T11:50:23;1.88;;;1.10;;
70818;SDS011;58439;51.046;13.692;2023-06-04T11:53:09;3.20;;;1.25;;
70818;SDS011;58439;51.046;13.692;2023-06-04T11:56:01;4.22;;;1.08;;
70818;SDS011;58439;51.046;13.692;2023-06-04T11:58:31;4.10;;;1.27;;
70818;SDS011;58439;51.046;13.692;2023-06-04T12:01:04;4.93;;;1.30;;
70818;SDS011;58439;51.046;13.692;2023-06-04T12:03:46;2.97;;;1.50;;
70818;SDS011;58439;51.046;13.692;2023-06-04T12:06:16;2.30;;;1.38;;
70818;SDS011;58439;51.046;13.692;2023-06-04T12:08:56;3.05;;;1.30;;
70818;SDS011;58439;51.046;13.692;2023-06-04T12:11:30;2.03;;;1.13;;
70818;SDS011;58439;51.046;13.692;2023-06-04T12:14:04;4.35;;;1.45;;
70818;SDS011;58439;51.046;13.692;2023-06-04T12:16:58;2.90;;;1.20;;
70818;SDS011;58439;51.046;13.692;2023-06-04T12:19:46;3.65;;;1.42;;
70818;SDS011;58439;51.046;13.692;2023-06-04T12:22:15;3.90;;;1.40;;
70818;SDS011;58439;51.046;13.692;2023-06-04T12:25:00;3.67;;;1.52;;
70818;SDS011;58439;51.046;13.692;2023-06-04T12:27:31;3.47;;;1.50;;
70818;SDS011;58439;51.046;13.692;2023-06-04T12:30:03;2.15;;;1.17;;
70818;SDS011;58439;51.046;13.692;2023-06-04T12:32:34;2.75;;;1.30;;
70818;SDS011;58439;51.046;13.692;2023-06-04T12:35:02;3.67;;;1.20;;
70818;SDS011;58439;51.046;13.692;2023-06-04T12:37:30;3.15;;;1.40;;
70818;SDS011;58439;51.046;13.692;2023-06-04T12:39:57;4.95;;;1.40;;
70818;SDS011;58439;51.046;13.692;2023-06-04T12:42:24;4.13;;;1.50;;
70818;SDS011;58439;51.046;13.692;2023-06-04T12:44:52;7.43;;;1.45;;
70818;SDS011;58439;51.046;13.692;2023-06-04T12:47:19;3.33;;;1.00;;
70818;SDS011;58439;51.046;13.692;2023-06-04T12:49:47;3.60;;;1.25;;
70818;SDS011;58439;51.046;13.692;2023-06-04T12:52:16;4.88;;;1.42;;
70818;SDS011;58439;51.046;13.692;2023-06-04T12:54:43;3.63;;;1.27;;
70818;SDS011;58439;51.046;13.692;2023-06-04T12:57:27;2.42;;;1.30;;
70818;SDS011;58439;51.046;13.692;2023-06-04T12:59:54;4.35;;;1.23;;
70818;SDS011;58439;51.046;13.692;2023-06-04T13:02:22;5.35;;;1.50;;
70818;SDS011;58439;51.046;13.692;2023-06-04T13:04:53;2.03;;;1.20;;
70818;SDS011;58439;51.046;13.692;2023-06-04T13:07:22;2.72;;;1.27;;
70818;SDS011;58439;51.046;13.692;2023-06-04T13:10:01;2.30;;;1.33;;
70818;SDS011;58439;51.046;13.692;2023-06-04T13:12:32;3.22;;;1.42;;
70818;SDS011;58439;51.046;13.692;2023-06-04T13:14:59;2.60;;;1.20;;
70818;SDS011;58439;51.046;13.692;2023-06-04T13:17:29;4.22;;;1.83;;
70818;SDS011;58439;51.046;13.692;2023-06-04T13:20:01;3.88;;;1.17;;
70818;SDS011;58439;51.046;13.692;2023-06-04T13:22:30;3.05;;;1.35;;
70818;SDS011;58439;51.046;13.692;2023-06-04T13:24:57;3.90;;;1.52;;
70818;SDS011;58439;51.046;13.692;2023-06-04T13:27:24;3.40;;;1.35;;
70818;SDS011;58439;51.046;13.692;2023-06-04T13:29:52;4.13;;;1.45;;
70818;SDS011;58439;51.046;13.692;2023-06-04T13:32:19;4.15;;;1.50;;
70818;SDS011;58439;51.046;13.692;2023-06-04T13:34:49;4.20;;;1.33;;
70818;SDS011;58439;51.046;13.692;2023-06-04T13:37:16;2.80;;;1.20;;
70818;SDS011;58439;51.046;13.692;2023-06-04T13:39:43;5.25;;;1.55;;
70818;SDS011;58439;51.046;13.692;2023-06-04T13:42:11;6.10;;;1.50;;
70818;SDS011;58439;51.046;13.692;2023-06-04T13:48:26;3.15;;;1.50;;
70818;SDS011;58439;51.046;13.692;2023-06-04T13:52:09;1.63;;;0.90;;
70818;SDS011;58439;51.046;13.692;2023-06-04T13:54:44;2.90;;;1.45;;
70818;SDS011;58439;51.046;13.692;2023-06-04T13:57:11;2.63;;;1.45;;
70818;SDS011;58439;51.046;13.692;2023-06-04T13:59:39;4.00;;;1.35;;
70818;SDS011;58439;51.046;13.692;2023-06-04T14:02:06;3.92;;;1.20;;
70818;SDS011;58439;51.046;13.692;2023-06-04T14:04:36;9.80;;;1.77;;
70818;SDS011;58439;51.046;13.692;2023-06-04T14:07:04;3.85;;;1.40;;
70818;SDS011;58439;51.046;13.692;2023-06-04T14:09:34;3.88;;;1.40;;
70818;SDS011;58439;51.046;13.692;2023-06-04T14:12:18;4.57;;;1.30;;
70818;SDS011;58439;51.046;13.692;2023-06-04T14:14:46;2.03;;;1.30;;
70818;SDS011;58439;51.046;13.692;2023-06-04T14:17:15;3.65;;;1.50;;
70818;SDS011;58439;51.046;13.692;2023-06-04T14:19:49;3.92;;;1.27;;
70818;SDS011;58439;51.046;13.692;2023-06-04T14:22:17;6.70;;;1.38;;
70818;SDS011;58439;51.046;13.692;2023-06-04T14:24:46;4.47;;;1.35;;
70818;SDS011;58439;51.046;13.692;2023-06-04T14:27:13;3.67;;;1.25;;
70818;SDS011;58439;51.046;13.692;2023-06-04T14:29:40;2.80;;;1.27;;
70818;SDS011;58439;51.046;13.692;2023-06-04T14:32:07;4.18;;;1.23;;
70818;SDS011;58439;51.046;13.692;2023-06-04T14:34:37;3.28;;;1.50;;
70818;SDS011;58439;51.046;13.692;2023-06-04T14:37:09;4.50;;;1.42;;
70818;SDS011;58439;51.046;13.692;2023-06-04T14:39:36;3.60;;;1.27;;
70818;SDS011;58439;51.046;13.692;2023-06-04T14:42:04;7.47;;;1.58;;
70818;SDS011;58439;51.046;13.692;2023-06-04T14:44:31;3.95;;;1.40;;
70818;SDS011;58439;51.046;13.692;2023-06-04T14:46:58;3.88;;;1.40;;
70818;SDS011;58439;51.046;13.692;2023-06-04T14:49:28;3.30;;;1.40;;
70818;SDS011;58439;51.046;13.692;2023-06-04T14:51:56;3.83;;;1.38;;
70818;SDS011;58439;51.046;13.692;2023-06-04T14:54:26;3.67;;;1.40;;
70818;SDS011;58439;51.046;13.692;2023-06-04T14:56:57;2.45;;;1.20;;
70818;SDS011;58439;51.046;13.692;2023-06-04T14:59:24;3.63;;;1.30;;
70818;SDS011;58439;51.046;13.692;2023-06-04T15:01:52;2.78;;;1.33;;
70818;SDS011;58439;51.046;13.692;2023-06-04T15:04:21;2.20;;;1.30;;
70818;SDS011;58439;51.046;13.692;2023-06-04T15:06:49;2.70;;;1.30;;
70818;SDS011;58439;51.046;13.692;2023-06-04T15:09:20;3.80;;;1.27;;
70818;SDS011;58439;51.046;13.692;2023-06-04T15:11:50;3.30;;;1.30;;
70818;SDS011;58439;51.046;13.692;2023-06-04T15:14:21;2.08;;;1.10;;
70818;SDS011;58439;51.046;13.692;2023-06-04T15:17:36;2.95;;;1.42;;
70818;SDS011;58439;51.046;13.692;2023-06-04T15:20:46;7.33;;;1.27;;
70818;SDS011;58439;51.046;13.692;2023-06-04T15:23:52;3.53;;;0.98;;
70818;SDS011;58439;51.046;13.692;2023-06-04T15:26:45;4.80;;;1.20;;
70818;SDS011;58439;51.046;13.692;2023-06-04T15:33:27;2.60;;;1.13;;
70818;SDS011;58439;51.046;13.692;2023-06-04T15:39:42;5.65;;;1.25;;
70818;SDS011;58439;51.046;13.692;2023-06-04T15:42:21;4.03;;;1.40;;
70818;SDS011;58439;51.046;13.692;2023-06-04T15:45:08;2.88;;;1.48;;
70818;SDS011;58439;51.046;13.692;2023-06-04T15:47:38;4.07;;;1.52;;
70818;SDS011;58439;51.046;13.692;2023-06-04T15:50:45;2.83;;;1.30;;
70818;SDS011;58439;51.046;13.692;2023-06-04T15:54:11;3.03;;;1.48;;
70818;SDS011;58439;51.046;13.692;2023-06-04T15:56:55;5.00;;;1.60;;
70818;SDS011;58439;51.046;13.692;2023-06-04T15:59:22;4.05;;;1.30;;
70818;SDS011;58439;51.046;13.692;2023-06-04T16:01:50;6.07;;;1.35;;
70818;SDS011;58439;51.046;13.692;2023-06-04T16:04:17;2.10;;;1.20;;
70818;SDS011;58439;51.046;13.692;2023-06-04T16:06:45;6.03;;;1.40;;
70818;SDS011;58439;51.046;13.692;2023-06-04T16:09:12;4.90;;;1.35;;
70818;SDS011;58439;51.046;13.692;2023-06-04T16:11:39;4.75;;;1.77;;